Accueil
METAR-TAF:

METAR-TAF

Aéroports :

Aéroport international de Nouakchott-Oumtounsy

Nouakchott, Mauritanie

latitude: 18-18-36N, longitude: 015-58-11W, altitude: 3 m

Observation

Le bulletin a été fait il y a 38 minutes, à 03:30 UTC
Vent 6 kt de sud-ouest
Température 25°C
Humidité 69%
Pression 1009 hPa
Visibilité: 6000 m

METAR: GQNO 230330Z 22006KT 6000 NSC 25/19 Q1009 NOSIG

Heure: 04:08 (04:08 UTC)

Prévision

Le bulletin a été fait il y a 11 heures et 8 minutes, à 17:00 UTC
Prévision valable du 22 à 18 UTC au 23 à 24 UTC
Vent 15 kt de nord-ouest
Visibilité: 6000 m
Evoluant progressivement
du 22 à 20 UTC au 22 à 23 UTC
Vent 12 kt de ouest

TAF: GQNO 221700Z 2218/2324 32015KT 6000 NSC BECMG 2220/2223 26012KT

Observations et prévisions météorologiques de plus de 4000 aéroports (messages METAR et TAF).

Les stations disponibles sont représentées par des disques jaunes et rouges sur la carte.

Passer la souris dessus pour voir le nom de la station.

Cliquer dessus pour voir les observations et prévisions météorologiques.

Pour changer de carte: cliquez sur les boutons verts avec une croix noire pour zoomer, sur le bouton vert avec un tiret pour effectuer un zoom arrière, ou sur les flèches vertes pour les cartes adjacentes.


METAR-TAF: